createdAt,value
2018-03-31T04:51:06.583Z,26.3
2018-03-31T04:51:56.060Z,26.7
2018-03-31T04:52:46.046Z,27
2018-03-31T04:53:35.587Z,27.3
2018-03-31T04:54:25.862Z,27.4
2018-03-31T04:55:17.158Z,27.6
2018-03-31T04:56:55.717Z,27.9
2018-03-31T04:57:46.196Z,28.1
2018-03-31T04:58:36.362Z,28.3
2018-03-31T04:59:25.923Z,28.4
2018-03-31T05:00:16.063Z,28.5
2018-03-31T05:01:05.661Z,28.6
2018-03-31T05:01:57.000Z,28.8
2018-03-31T05:02:46.313Z,28.8
2018-03-31T05:03:37.060Z,28.9
2018-03-31T05:04:26.283Z,28.9
2018-03-31T05:05:15.317Z,28.9
2018-03-31T05:06:08.007Z,28.8
2018-03-31T05:06:56.837Z,28.7
2018-03-31T05:07:46.636Z,28.6
2018-03-31T05:08:36.574Z,28.4
2018-03-31T05:09:26.686Z,28.3
2018-03-31T05:10:17.196Z,28.2
2018-03-31T05:11:06.351Z,28.1
2018-03-31T05:11:57.135Z,27.9
2018-03-31T05:12:47.137Z,27.8
2018-03-31T05:13:37.539Z,27.6
2018-03-31T05:14:27.619Z,27.5
2018-03-31T05:15:17.127Z,27.4
2018-03-31T05:16:07.629Z,27.3
2018-03-31T05:16:57.581Z,27.3
2018-03-31T05:17:48.602Z,27.1
2018-03-31T05:18:36.421Z,27.1
2018-03-31T05:19:27.095Z,27
2018-03-31T05:20:17.399Z,26.9
2018-03-31T05:21:07.881Z,26.9
2018-03-31T05:21:58.214Z,26.8
2018-03-31T05:22:47.284Z,26.8
2018-03-31T05:23:38.362Z,26.7
2018-03-31T05:24:28.423Z,26.7
2018-03-31T05:25:17.991Z,26.6
2018-03-31T05:26:08.501Z,26.6
2018-03-31T05:26:58.227Z,26.5
2018-03-31T05:27:48.228Z,26.5
2018-03-31T05:28:38.335Z,26.4
2018-03-31T05:29:28.181Z,26.4
2018-03-31T05:30:18.266Z,26.4
2018-03-31T05:31:09.870Z,26.3
2018-03-31T05:31:58.726Z,26.3
2018-03-31T05:32:48.103Z,26.3
2018-03-31T05:33:38.659Z,26.2
2018-03-31T05:34:28.810Z,26.1
2018-03-31T05:35:18.679Z,26.1
2018-03-31T05:36:08.328Z,26
2018-03-31T05:36:58.723Z,26
2018-03-31T05:37:48.198Z,25.9
2018-03-31T05:38:39.706Z,25.9
2018-03-31T05:39:29.968Z,25.8
2018-03-31T05:40:18.837Z,25.8
2018-03-31T05:41:09.392Z,25.8
2018-03-31T05:41:59.754Z,25.7
2018-03-31T05:42:50.020Z,25.6
2018-03-31T05:43:39.554Z,25.6
2018-03-31T05:44:30.225Z,25.6
2018-03-31T05:45:18.745Z,25.4
2018-03-31T05:46:09.789Z,25.4
2018-03-31T05:47:00.359Z,25.4
2018-03-31T05:47:49.229Z,25.3
2018-03-31T05:48:39.202Z,25.3
2018-03-31T05:49:30.481Z,25.3
2018-03-31T05:50:20.277Z,25.2
2018-03-31T05:51:11.398Z,25.1
2018-03-31T05:52:00.062Z,25.1
2018-03-31T05:52:50.398Z,25.1
2018-03-31T05:53:40.724Z,25
2018-03-31T05:54:30.101Z,24.9
2018-03-31T05:55:19.657Z,24.9
2018-03-31T05:56:10.028Z,24.9
2018-03-31T05:57:00.232Z,24.8
2018-03-31T05:57:50.511Z,24.8
2018-03-31T05:58:40.488Z,24.8
2018-03-31T05:59:29.697Z,24.7
2018-03-31T06:00:19.849Z,24.7
2018-03-31T06:01:10.776Z,24.7
2018-03-31T06:02:01.036Z,24.6
2018-03-31T06:02:50.409Z,24.6
2018-03-31T06:03:39.941Z,24.5
2018-03-31T06:04:30.622Z,24.4
2018-03-31T06:05:20.886Z,24.4
2018-03-31T06:06:11.249Z,24.4
2018-03-31T06:06:59.993Z,24.4
2018-03-31T06:07:50.872Z,24.3
2018-03-31T06:08:40.280Z,24.3
2018-03-31T06:09:31.203Z,24.3
2018-03-31T06:10:20.647Z,24.2
2018-03-31T06:11:11.510Z,24.2
2018-03-31T06:12:00.703Z,24.1
2018-03-31T06:12:51.638Z,24.1
2018-03-31T06:13:41.667Z,24.1
2018-03-31T06:14:31.401Z,24
2018-03-31T06:15:20.203Z,24
2018-03-31T06:16:12.145Z,24
2018-03-31T06:17:01.504Z,23.9
2018-03-31T06:17:50.778Z,23.9
2018-03-31T06:18:42.275Z,23.9
2018-03-31T06:19:32.603Z,23.8
2018-03-31T06:20:22.201Z,23.8
2018-03-31T06:21:11.957Z,23.8
2018-03-31T06:22:02.330Z,23.8
2018-03-31T06:22:53.351Z,23.8
2018-03-31T06:23:42.822Z,23.8
2018-03-31T06:24:32.796Z,23.7
2018-03-31T06:25:22.367Z,23.7
2018-03-31T06:26:12.675Z,23.7
2018-03-31T06:27:02.761Z,23.6
2018-03-31T06:27:51.900Z,23.6
2018-03-31T06:28:41.157Z,23.6
2018-03-31T06:29:33.115Z,23.6
2018-03-31T06:30:24.797Z,23.5
2018-03-31T06:31:13.122Z,23.5
2018-03-31T06:32:05.219Z,23.4
2018-03-31T06:32:54.733Z,23.4
2018-03-31T06:33:44.185Z,23.4
2018-03-31T06:34:34.863Z,23.4
2018-03-31T06:35:24.850Z,23.4
2018-03-31T06:36:14.348Z,23.3
2018-03-31T06:37:04.730Z,23.3
2018-03-31T06:37:54.798Z,23.3
2018-03-31T06:38:44.532Z,23.3
2018-03-31T06:39:32.900Z,23.3
2018-03-31T06:40:24.105Z,23.3
2018-03-31T06:41:13.566Z,23.2
2018-03-31T06:42:02.732Z,23.2
2018-03-31T06:42:54.267Z,23.2
2018-03-31T06:43:43.281Z,23.1
2018-03-31T06:44:33.427Z,23.1
2018-03-31T06:45:23.678Z,23.1
2018-03-31T06:46:14.767Z,23.1
2018-03-31T06:47:03.899Z,23.1
2018-03-31T06:47:52.869Z,23.1
2018-03-31T06:48:43.853Z,23
2018-03-31T06:49:34.166Z,23
2018-03-31T06:50:23.364Z,23
2018-03-31T06:51:14.567Z,22.9
2018-03-31T06:52:04.371Z,22.9
2018-03-31T06:52:55.076Z,22.9
2018-03-31T06:53:43.817Z,22.9
2018-03-31T06:54:34.563Z,22.8
2018-03-31T06:55:24.908Z,22.8
2018-03-31T06:56:12.779Z,22.7
2018-03-31T06:57:04.385Z,22.7
2018-03-31T06:57:55.353Z,22.7
2018-03-31T06:58:45.097Z,22.7
2018-03-31T06:59:34.646Z,22.6
2018-03-31T07:00:24.580Z,22.6
2018-03-31T07:01:14.532Z,22.6
2018-03-31T07:02:03.507Z,22.6
2018-03-31T07:02:54.583Z,22.6
2018-03-31T07:03:45.405Z,22.6
2018-03-31T07:04:33.698Z,22.5
2018-03-31T07:05:24.048Z,22.5
2018-03-31T07:06:16.328Z,22.5
2018-03-31T07:07:05.833Z,22.5
2018-03-31T07:07:55.470Z,22.5
2018-03-31T07:08:46.388Z,22.4
2018-03-31T07:09:35.789Z,22.4
2018-03-31T07:10:24.933Z,22.4
2018-03-31T07:11:14.938Z,22.4
2018-03-31T07:12:05.899Z,22.4
2018-03-31T07:12:56.063Z,22.4
2018-03-31T07:13:46.457Z,22.4
2018-03-31T07:14:36.327Z,22.4
2018-03-31T07:15:26.157Z,22.3
2018-03-31T07:16:16.362Z,22.3
2018-03-31T07:17:05.845Z,22.3
2018-03-31T07:17:56.893Z,22.3
2018-03-31T07:18:45.872Z,22.3
2018-03-31T07:19:36.144Z,22.3
2018-03-31T07:20:27.815Z,22.3
2018-03-31T07:21:16.555Z,22.3
2018-03-31T07:22:06.112Z,22.3
2018-03-31T07:22:56.194Z,22.3
2018-03-31T07:23:45.962Z,22.3
2018-03-31T07:24:35.364Z,22.2
2018-03-31T07:25:26.233Z,22.3
2018-03-31T07:26:16.028Z,22.2
2018-03-31T07:27:06.118Z,22.2
2018-03-31T07:27:57.936Z,22.2
2018-03-31T07:28:47.033Z,22.2
2018-03-31T07:29:37.269Z,22.2
2018-03-31T07:30:26.906Z,22.1
2018-03-31T07:31:16.819Z,22.1
2018-03-31T07:32:07.895Z,22.1
2018-03-31T07:32:58.189Z,22.1
2018-03-31T07:33:48.251Z,22.1
2018-03-31T07:34:38.387Z,22.1
2018-03-31T07:35:27.997Z,22.1
2018-03-31T07:36:18.317Z,22.1
2018-03-31T07:37:08.728Z,22.1
2018-03-31T07:37:59.376Z,22.1
2018-03-31T07:38:49.564Z,22.1
2018-03-31T07:39:39.052Z,22.1
2018-03-31T07:40:29.825Z,22
2018-03-31T07:41:19.630Z,22
2018-03-31T07:42:09.656Z,22
2018-03-31T07:42:59.454Z,22
2018-03-31T07:43:50.092Z,22
2018-03-31T07:44:38.734Z,22
2018-03-31T07:45:29.187Z,22
2018-03-31T07:46:19.200Z,22
2018-03-31T07:47:09.813Z,21.9
2018-03-31T07:48:00.173Z,21.9
2018-03-31T07:48:49.356Z,21.9
2018-03-31T07:49:39.951Z,21.9
2018-03-31T07:50:30.006Z,21.9
2018-03-31T07:51:20.125Z,21.9
2018-03-31T07:52:11.646Z,21.9
2018-03-31T07:52:59.893Z,21.9
2018-03-31T07:53:49.688Z,21.9
2018-03-31T07:54:40.691Z,21.9
2018-03-31T07:55:31.015Z,21.9
2018-03-31T07:56:20.726Z,21.9
2018-03-31T07:57:09.935Z,21.9
2018-03-31T07:57:58.580Z,21.9
2018-03-31T07:58:50.313Z,21.9
2018-03-31T07:59:40.150Z,21.9
2018-03-31T08:00:30.125Z,21.9
2018-03-31T08:01:20.096Z,21.9
2018-03-31T08:02:09.147Z,21.8
2018-03-31T08:02:59.734Z,21.9
2018-03-31T08:03:50.297Z,21.8
2018-03-31T08:04:38.765Z,21.8
2018-03-31T08:05:30.259Z,21.8
2018-03-31T08:06:20.087Z,21.8
2018-03-31T08:07:09.765Z,21.8
2018-03-31T08:08:00.526Z,21.8
2018-03-31T08:08:50.657Z,21.8
2018-03-31T08:09:39.814Z,21.8
2018-03-31T08:10:30.348Z,21.8
2018-03-31T08:11:20.196Z,21.8
2018-03-31T08:12:10.983Z,21.8
2018-03-31T08:13:01.281Z,21.8
2018-03-31T08:13:51.258Z,21.8
2018-03-31T08:14:42.283Z,21.8
2018-03-31T08:15:31.044Z,21.8
2018-03-31T08:16:20.451Z,21.8
2018-03-31T08:17:12.241Z,21.8
2018-03-31T08:18:01.429Z,21.8
2018-03-31T08:18:51.850Z,21.7
2018-03-31T08:19:41.541Z,21.7
2018-03-31T08:20:30.636Z,21.7
2018-03-31T08:21:20.139Z,21.7
2018-03-31T08:22:11.790Z,21.7
2018-03-31T08:23:01.117Z,21.7
2018-03-31T08:23:52.225Z,21.7
2018-03-31T08:24:40.495Z,21.7
2018-03-31T08:25:31.280Z,21.7
2018-03-31T08:26:21.761Z,21.7
2018-03-31T08:27:11.989Z,21.6
2018-03-31T08:28:02.216Z,21.6
2018-03-31T08:28:52.747Z,21.6
2018-03-31T08:29:43.333Z,21.6
2018-03-31T08:30:35.022Z,21.6
2018-03-31T08:31:23.904Z,21.6
2018-03-31T08:32:14.083Z,21.6
2018-03-31T08:33:03.946Z,21.6
2018-03-31T08:33:54.265Z,21.6
2018-03-31T08:34:44.674Z,21.6
2018-03-31T08:35:32.958Z,21.6
2018-03-31T08:36:24.448Z,21.6
2018-03-31T08:37:14.475Z,21.6
2018-03-31T08:38:03.767Z,21.6
2018-03-31T08:38:54.135Z,21.6
2018-03-31T08:39:43.893Z,21.6
2018-03-31T08:40:34.405Z,21.6
2018-03-31T08:41:24.231Z,21.6
2018-03-31T08:42:14.882Z,21.6
2018-03-31T08:43:04.615Z,21.6
2018-03-31T08:43:55.030Z,21.6
2018-03-31T08:44:45.072Z,21.6
2018-03-31T08:45:34.539Z,21.6
2018-03-31T08:46:25.172Z,21.5
2018-03-31T08:47:17.827Z,21.6
2018-03-31T08:48:04.729Z,21.5
2018-03-31T08:48:55.369Z,21.5
2018-03-31T08:49:45.681Z,21.5
2018-03-31T08:50:35.467Z,21.5
2018-03-31T08:51:25.584Z,21.5
2018-03-31T08:52:15.576Z,21.5
2018-03-31T08:53:04.819Z,21.5
2018-03-31T08:53:55.204Z,21.5
2018-03-31T08:54:45.921Z,21.5
2018-03-31T08:55:35.545Z,21.5
2018-03-31T08:56:25.532Z,21.5
2018-03-31T08:57:15.451Z,21.5
2018-03-31T08:58:05.484Z,21.5
2018-03-31T08:58:55.087Z,21.4
2018-03-31T08:59:46.138Z,21.5
2018-03-31T09:00:35.770Z,21.4
2018-03-31T09:01:25.496Z,21.4
2018-03-31T09:02:16.029Z,21.4
2018-03-31T09:03:06.371Z,21.4
2018-03-31T09:03:57.000Z,21.4
2018-03-31T09:04:46.483Z,21.4
2018-03-31T09:05:36.028Z,21.4
2018-03-31T09:06:26.617Z,21.4
2018-03-31T09:07:16.098Z,21.4
2018-03-31T09:08:06.075Z,21.4
2018-03-31T09:08:56.323Z,21.4
2018-03-31T09:09:46.611Z,21.4
2018-03-31T09:10:36.176Z,21.4
2018-03-31T09:11:26.253Z,21.4
2018-03-31T09:12:17.381Z,21.4
2018-03-31T09:13:06.993Z,21.4
2018-03-31T09:13:57.551Z,21.4
2018-03-31T09:14:47.293Z,21.4
2018-03-31T09:15:35.725Z,21.4
2018-03-31T09:16:24.631Z,21.4
2018-03-31T09:17:16.158Z,21.4
2018-03-31T09:18:06.010Z,21.4
2018-03-31T09:18:55.404Z,21.4
2018-03-31T09:19:45.545Z,21.4
2018-03-31T09:20:34.550Z,21.4
2018-03-31T09:21:25.730Z,21.4
2018-03-31T09:22:14.634Z,21.3
2018-03-31T09:23:04.760Z,21.3
2018-03-31T09:23:54.700Z,21.3
2018-03-31T09:24:49.892Z,21.3
2018-03-31T09:25:35.598Z,21.3
2018-03-31T09:26:25.303Z,21.3
2018-03-31T09:27:16.427Z,21.3
2018-03-31T09:28:05.909Z,21.3
2018-03-31T09:28:55.932Z,21.3
2018-03-31T09:29:46.985Z,21.3
2018-03-31T09:30:37.360Z,21.3
2018-03-31T09:31:26.643Z,21.3
2018-03-31T09:32:16.309Z,21.3
2018-03-31T09:33:06.052Z,21.3
2018-03-31T09:33:57.187Z,21.3
2018-03-31T09:34:46.295Z,21.3
2018-03-31T09:35:35.959Z,21.3
2018-03-31T09:36:26.386Z,21.3
2018-03-31T09:37:16.681Z,21.3
2018-03-31T09:38:06.572Z,21.3
2018-03-31T09:38:57.882Z,21.3
2018-03-31T09:39:46.077Z,21.3
2018-03-31T09:40:35.708Z,21.3
2018-03-31T09:41:26.192Z,21.3
2018-03-31T09:42:16.733Z,21.3
2018-03-31T09:43:06.543Z,21.3
2018-03-31T09:43:57.756Z,21.3
2018-03-31T09:44:46.281Z,21.3
2018-03-31T09:45:36.964Z,21.3
2018-03-31T09:46:27.989Z,21.3
2018-03-31T09:47:17.909Z,21.3
2018-03-31T09:48:07.056Z,21.2
2018-03-31T09:48:55.640Z,21.2
2018-03-31T09:49:46.842Z,21.2
2018-03-31T09:50:37.848Z,21.2
2018-03-31T09:51:27.103Z,21.2
2018-03-31T09:52:18.146Z,21.2
2018-03-31T09:53:07.423Z,21.2
2018-03-31T09:53:57.432Z,21.2
2018-03-31T09:54:47.520Z,21.2
2018-03-31T09:55:37.271Z,21.2
2018-03-31T09:56:28.192Z,21.2
2018-03-31T09:57:17.903Z,21.2
2018-03-31T09:58:08.026Z,21.2
2018-03-31T09:58:58.912Z,21.2
2018-03-31T09:59:48.112Z,21.2
2018-03-31T10:00:38.567Z,21.2
2018-03-31T10:01:28.777Z,21.2
2018-03-31T10:02:18.303Z,21.2
2018-03-31T10:03:09.024Z,21.2
2018-03-31T10:03:57.839Z,21.2
2018-03-31T10:04:48.284Z,21.2
2018-03-31T10:05:37.729Z,21.2
2018-03-31T10:07:19.713Z,21.2
2018-03-31T10:08:07.920Z,21.2
2018-03-31T10:08:58.864Z,21.2
2018-03-31T10:09:49.397Z,21.2
2018-03-31T10:10:38.012Z,21.2
2018-03-31T10:11:28.784Z,21.2
2018-03-31T10:12:19.178Z,21.2
2018-03-31T10:18:09.534Z,21.2
2018-03-31T10:18:59.561Z,21.1
2018-03-31T10:19:50.149Z,21.2
2018-03-31T10:20:40.137Z,21.2
2018-03-31T10:21:29.871Z,21.2
2018-03-31T10:23:09.718Z,21.2
2018-03-31T10:25:39.531Z,21.2
2018-03-31T10:26:29.611Z,21.2
2018-03-31T10:28:09.626Z,21.2
2018-03-31T10:36:31.142Z,21.2
2018-03-31T10:41:30.627Z,21.2
2018-03-31T10:54:03.125Z,21.1
2018-03-31T11:04:03.167Z,21.1
2018-03-31T11:04:52.874Z,21.1
2018-03-31T11:11:33.887Z,21.1
2018-03-31T11:12:22.354Z,21.1
2018-03-31T11:13:14.241Z,21.1
2018-03-31T11:15:44.604Z,21.1
2018-03-31T11:19:04.760Z,21.1
2018-03-31T11:19:54.498Z,21.1
2018-03-31T11:20:43.702Z,21.1
2018-03-31T11:22:23.963Z,21.1
2018-03-31T11:23:14.398Z,21.1
2018-03-31T11:24:04.065Z,21.1
2018-03-31T11:24:55.105Z,21.1
2018-03-31T11:26:34.692Z,21.1
2018-03-31T11:28:14.690Z,21.1
2018-03-31T11:29:05.353Z,21.1
2018-03-31T11:29:55.578Z,21.1
2018-03-31T11:31:35.812Z,21.1
2018-03-31T11:32:26.605Z,21.1
2018-03-31T11:33:14.918Z,21.1
2018-03-31T11:34:06.475Z,21.1
2018-03-31T11:34:56.099Z,21.1
2018-03-31T11:36:36.079Z,21.1
2018-03-31T11:37:25.200Z,21.1
2018-03-31T11:38:16.030Z,21.1
2018-03-31T11:39:05.737Z,21.1
2018-03-31T11:39:56.441Z,21.1
2018-03-31T11:40:46.555Z,21.1
2018-03-31T11:41:35.969Z,21.1
2018-03-31T11:42:27.643Z,21.1
2018-03-31T11:43:14.721Z,21.1
2018-03-31T11:44:06.520Z,21.1
2018-03-31T11:44:57.610Z,21.1
2018-03-31T11:45:46.913Z,21.1
2018-03-31T11:46:36.282Z,21.1
2018-03-31T11:47:26.499Z,21.1
2018-03-31T11:48:17.042Z,21.1
2018-03-31T11:49:07.026Z,21.1
2018-03-31T11:49:57.379Z,21.1
2018-03-31T11:50:46.891Z,21.1
2018-03-31T11:51:36.423Z,21.1
2018-03-31T11:52:27.573Z,21.1
2018-03-31T11:53:17.154Z,21.1
2018-03-31T11:54:07.699Z,21.1
2018-03-31T11:54:55.971Z,21.1
2018-03-31T11:55:47.536Z,21.1
2018-03-31T11:56:36.952Z,21.1
2018-03-31T11:57:26.409Z,21.1
2018-03-31T11:58:17.651Z,21.1
2018-03-31T11:59:07.186Z,21.1
2018-03-31T11:59:57.363Z,21.1
2018-03-31T12:00:48.421Z,21.1
2018-03-31T12:01:38.165Z,21.1
2018-03-31T12:02:27.126Z,21.1
2018-03-31T12:03:17.809Z,21.1
2018-03-31T12:04:08.141Z,21.1
2018-03-31T12:04:57.863Z,21
2018-03-31T12:05:47.876Z,21
2018-03-31T12:06:37.708Z,21.1
2018-03-31T12:07:28.188Z,21
2018-03-31T12:08:18.181Z,21.1
2018-03-31T12:09:08.725Z,21
2018-03-31T12:09:58.935Z,21
2018-03-31T12:10:47.577Z,21.1
2018-03-31T12:11:37.983Z,21
2018-03-31T12:12:28.093Z,21
2018-03-31T12:13:19.062Z,21
2018-03-31T12:14:08.218Z,21
2018-03-31T12:14:58.703Z,21
2018-03-31T12:15:48.555Z,21
2018-03-31T12:16:39.098Z,21
2018-03-31T12:17:30.614Z,21
2018-03-31T12:18:19.042Z,21
2018-03-31T12:19:07.860Z,21
2018-03-31T12:19:58.161Z,21
2018-03-31T12:20:49.090Z,21
2018-03-31T12:21:37.970Z,21
2018-03-31T12:22:27.775Z,21
2018-03-31T12:23:18.100Z,21
2018-03-31T12:24:09.560Z,20.9
2018-03-31T12:24:59.146Z,21
2018-03-31T12:25:48.885Z,21
2018-03-31T12:26:39.624Z,21
2018-03-31T12:27:30.237Z,21
2018-03-31T12:28:19.454Z,21
2018-03-31T12:29:09.286Z,21
2018-03-31T12:29:59.706Z,21
2018-03-31T12:30:50.280Z,21
2018-03-31T12:31:40.153Z,21
2018-03-31T12:32:28.951Z,21
2018-03-31T12:33:19.694Z,21
2018-03-31T12:34:09.399Z,21
2018-03-31T12:34:58.908Z,21
2018-03-31T12:35:50.169Z,21
2018-03-31T12:36:39.834Z,21
2018-03-31T12:37:29.464Z,21
2018-03-31T12:38:19.839Z,21
2018-03-31T12:39:10.076Z,21
2018-03-31T12:40:01.128Z,21
2018-03-31T12:40:50.761Z,21
2018-03-31T12:41:40.779Z,21
2018-03-31T12:42:30.079Z,21
2018-03-31T12:43:21.494Z,21
2018-03-31T12:44:09.491Z,21
2018-03-31T12:45:00.266Z,21
2018-03-31T12:45:50.593Z,21
2018-03-31T12:46:42.990Z,21
2018-03-31T12:47:31.938Z,21
2018-03-31T12:48:23.170Z,21
2018-03-31T12:49:12.100Z,21
2018-03-31T12:50:03.967Z,21
2018-03-31T12:50:53.373Z,21
2018-03-31T12:51:43.103Z,21
2018-03-31T12:52:31.821Z,21
2018-03-31T12:53:21.472Z,21
2018-03-31T12:54:10.948Z,21
2018-03-31T12:55:02.275Z,21
2018-03-31T12:55:51.796Z,21
2018-03-31T12:56:42.758Z,21
2018-03-31T12:57:32.630Z,21
2018-03-31T12:58:21.700Z,21
2018-03-31T12:59:12.910Z,21
2018-03-31T13:00:02.453Z,21
2018-03-31T13:00:52.195Z,21
2018-03-31T13:01:42.595Z,21
2018-03-31T13:02:31.299Z,21
2018-03-31T13:03:21.615Z,21
2018-03-31T13:04:13.008Z,21
2018-03-31T13:05:02.157Z,21
2018-03-31T13:05:52.170Z,21
2018-03-31T13:06:41.937Z,21
2018-03-31T13:07:33.686Z,21
2018-03-31T13:08:22.471Z,21
2018-03-31T13:09:12.958Z,21
2018-03-31T13:10:03.909Z,21
2018-03-31T13:10:52.441Z,21
2018-03-31T13:11:42.065Z,21
2018-03-31T13:12:33.974Z,21
2018-03-31T13:13:22.346Z,21
2018-03-31T13:14:13.273Z,21
2018-03-31T13:15:02.917Z,21
2018-03-31T13:15:52.668Z,21
2018-03-31T13:16:43.308Z,21
2018-03-31T13:17:33.651Z,21
2018-03-31T13:18:23.216Z,21
2018-03-31T13:19:13.670Z,21
2018-03-31T13:20:03.439Z,21
2018-03-31T13:20:52.737Z,21
2018-03-31T13:21:44.377Z,21
2018-03-31T13:22:33.431Z,21
2018-03-31T13:23:23.731Z,21
2018-03-31T13:24:14.121Z,21
2018-03-31T13:25:04.414Z,21
2018-03-31T13:25:53.608Z,21
2018-03-31T13:26:42.672Z,21
2018-03-31T13:27:34.331Z,21
2018-03-31T13:28:24.512Z,21
2018-03-31T13:29:13.205Z,21.1
2018-03-31T13:30:04.318Z,21
2018-03-31T13:30:54.224Z,21
2018-03-31T13:31:44.823Z,21
2018-03-31T13:32:34.354Z,21
2018-03-31T13:33:25.255Z,21.1
2018-03-31T13:34:15.013Z,21
2018-03-31T13:35:06.193Z,21
2018-03-31T13:35:55.708Z,21
2018-03-31T13:36:44.626Z,21
2018-03-31T13:37:33.968Z,20.9
2018-03-31T13:38:25.229Z,20.9
2018-03-31T13:39:14.855Z,20.9
2018-03-31T13:40:04.559Z,20.9
2018-03-31T13:40:54.567Z,20.9
2018-03-31T13:41:44.846Z,21
2018-03-31T13:42:35.559Z,21
2018-03-31T13:43:24.912Z,20.9
2018-03-31T13:44:15.526Z,21
2018-03-31T13:45:06.046Z,21
2018-03-31T13:45:55.461Z,21
2018-03-31T13:46:46.027Z,21
2018-03-31T13:47:36.033Z,21
2018-03-31T13:48:25.709Z,21
2018-03-31T13:49:15.974Z,20.9
2018-03-31T13:50:05.387Z,20.9
2018-03-31T13:50:54.573Z,20.9
2018-03-31T13:51:46.173Z,20.9
2018-03-31T13:52:36.172Z,20.9
2018-03-31T13:53:26.562Z,21
2018-03-31T13:54:16.382Z,21
2018-03-31T13:55:05.394Z,20.9
2018-03-31T13:55:56.057Z,21
2018-03-31T13:56:45.954Z,20.9
2018-03-31T13:57:36.382Z,21
2018-03-31T13:58:24.771Z,21
2018-03-31T13:59:19.092Z,20.9
2018-03-31T14:00:08.508Z,20.9
2018-03-31T14:00:58.564Z,21
2018-03-31T14:01:48.642Z,21
2018-03-31T14:02:39.232Z,21
2018-03-31T14:03:28.976Z,21
2018-03-31T14:04:19.086Z,21
2018-03-31T14:05:07.319Z,21
2018-03-31T14:05:56.472Z,21
2018-03-31T14:06:47.151Z,21
2018-03-31T14:07:37.696Z,21
2018-03-31T14:08:27.288Z,20.9
2018-03-31T14:09:17.223Z,21
2018-03-31T14:10:07.878Z,21
2018-03-31T14:10:58.424Z,21
2018-03-31T14:11:47.733Z,21
2018-03-31T14:12:37.723Z,21
2018-03-31T14:13:27.538Z,21
2018-03-31T14:14:19.854Z,21
2018-03-31T14:15:09.368Z,21
2018-03-31T14:15:59.470Z,21
2018-03-31T14:16:49.176Z,21
2018-03-31T14:17:39.556Z,21
2018-03-31T14:18:30.148Z,21
2018-03-31T14:19:20.015Z,21
2018-03-31T14:20:10.029Z,21
2018-03-31T14:21:00.068Z,21
2018-03-31T14:21:48.885Z,21
2018-03-31T14:22:38.464Z,21
2018-03-31T14:23:26.952Z,21
2018-03-31T14:24:18.946Z,21
2018-03-31T14:25:08.218Z,21
2018-03-31T14:25:58.201Z,21
2018-03-31T14:26:48.181Z,21
2018-03-31T14:27:37.938Z,21
2018-03-31T14:28:28.728Z,21
2018-03-31T14:29:19.055Z,20.9
2018-03-31T14:30:08.682Z,21
2018-03-31T14:30:59.085Z,21
2018-03-31T14:31:49.700Z,21
2018-03-31T14:32:39.473Z,21
2018-03-31T14:33:29.557Z,21
2018-03-31T14:34:19.223Z,21
2018-03-31T14:35:08.337Z,21
2018-03-31T14:35:57.905Z,21
2018-03-31T14:36:49.521Z,21
2018-03-31T14:37:40.603Z,21
2018-03-31T14:38:28.925Z,21
2018-03-31T14:39:19.080Z,21
2018-03-31T14:40:09.151Z,21
2018-03-31T14:41:00.967Z,21
2018-03-31T14:41:49.642Z,21
2018-03-31T14:42:39.802Z,21
2018-03-31T14:43:29.854Z,21
2018-03-31T14:44:19.849Z,21
2018-03-31T14:45:10.583Z,21
2018-03-31T14:46:01.421Z,21
2018-03-31T14:46:48.732Z,21
2018-03-31T14:47:39.472Z,21
2018-03-31T14:48:30.644Z,20.9
2018-03-31T14:49:20.320Z,20.9
2018-03-31T14:50:11.072Z,21
2018-03-31T14:50:59.591Z,21
2018-03-31T14:51:50.745Z,21
2018-03-31T14:52:40.470Z,21
2018-03-31T14:53:30.518Z,20.9
2018-03-31T14:54:19.652Z,21
2018-03-31T14:55:10.465Z,21
2018-03-31T14:56:01.930Z,20.9
2018-03-31T14:56:51.617Z,20.9
2018-03-31T14:57:41.369Z,20.9
2018-03-31T14:58:29.793Z,20.9
2018-03-31T14:59:20.400Z,20.9
2018-03-31T15:00:10.605Z,20.9
2018-03-31T15:01:01.329Z,20.9
2018-03-31T15:01:50.729Z,20.9
2018-03-31T15:02:41.913Z,20.9
2018-03-31T15:03:29.807Z,20.9
2018-03-31T15:04:21.016Z,20.9
2018-03-31T15:05:11.851Z,20.9
2018-03-31T15:06:01.572Z,20.9
2018-03-31T15:06:50.990Z,20.9
2018-03-31T15:07:41.750Z,20.9
2018-03-31T15:08:31.634Z,20.9
2018-03-31T15:09:21.497Z,20.9
2018-03-31T15:10:11.298Z,20.9
2018-03-31T15:11:02.009Z,20.9
2018-03-31T15:11:51.815Z,20.9
2018-03-31T15:12:43.129Z,20.9
2018-03-31T15:13:33.661Z,20.9
2018-03-31T15:14:23.473Z,20.9
2018-03-31T15:15:13.281Z,20.9
2018-03-31T15:16:04.207Z,20.9
2018-03-31T15:16:53.125Z,20.9
2018-03-31T15:17:44.501Z,20.9
2018-03-31T15:18:34.291Z,20.9
2018-03-31T15:19:23.839Z,20.9
2018-03-31T15:20:13.905Z,20.9
2018-03-31T15:21:01.532Z,20.9
2018-03-31T15:21:53.539Z,20.9
2018-03-31T15:22:43.755Z,20.9
2018-03-31T15:23:33.450Z,20.9
2018-03-31T15:24:23.957Z,20.9
2018-03-31T15:25:14.793Z,20.9
2018-03-31T15:26:04.328Z,20.9
2018-03-31T15:26:54.161Z,20.9
2018-03-31T15:27:43.288Z,20.9
2018-03-31T15:28:34.887Z,20.9
2018-03-31T15:29:24.038Z,20.9
2018-03-31T15:30:14.943Z,20.9
2018-03-31T15:31:03.903Z,20.9
2018-03-31T15:31:54.545Z,20.9
2018-03-31T15:32:44.813Z,20.9
2018-03-31T15:33:35.651Z,20.9
2018-03-31T15:34:25.240Z,20.9
2018-03-31T15:35:15.265Z,20.9
2018-03-31T15:36:03.709Z,20.9
2018-03-31T15:36:53.915Z,20.9
2018-03-31T15:37:42.635Z,20.9
2018-03-31T15:38:34.201Z,20.9
2018-03-31T15:39:23.211Z,20.9
2018-03-31T15:40:12.967Z,20.9
2018-03-31T15:41:04.278Z,20.9
2018-03-31T15:41:54.435Z,20.9
2018-03-31T15:42:43.520Z,20.9
2018-03-31T15:43:34.499Z,20.9
2018-03-31T15:44:24.733Z,20.9
2018-03-31T15:45:14.421Z,20.9
2018-03-31T15:46:04.355Z,20.9
2018-03-31T15:46:54.394Z,20.9
2018-03-31T15:47:44.207Z,20.9
2018-03-31T15:48:35.044Z,20.9
2018-03-31T15:49:24.209Z,20.9
2018-03-31T15:50:15.399Z,20.9
2018-03-31T15:51:03.989Z,20.9
2018-03-31T15:51:55.924Z,20.9
2018-03-31T15:52:46.344Z,20.9
2018-03-31T15:53:36.654Z,20.9
2018-03-31T15:54:26.950Z,20.9
2018-03-31T15:55:16.486Z,20.9
2018-03-31T15:56:06.531Z,20.9
2018-03-31T15:56:56.932Z,20.9
2018-03-31T15:57:47.244Z,20.9
2018-03-31T15:58:37.058Z,20.9
2018-03-31T15:59:27.620Z,20.9
2018-03-31T16:00:17.118Z,20.9
2018-03-31T16:01:06.645Z,20.9
2018-03-31T16:01:57.436Z,20.9
2018-03-31T16:02:47.033Z,20.9
2018-03-31T16:03:37.978Z,20.9
2018-03-31T16:04:27.733Z,20.9
2018-03-31T16:05:17.726Z,20.9
2018-03-31T16:06:06.945Z,20.9
2018-03-31T16:06:57.856Z,20.9
2018-03-31T16:07:47.135Z,20.9
2018-03-31T16:08:37.500Z,20.9
2018-03-31T16:09:27.794Z,20.9
2018-03-31T16:10:16.981Z,20.9
2018-03-31T16:11:07.873Z,20.9
2018-03-31T16:11:57.958Z,20.8
2018-03-31T16:12:47.556Z,20.9
2018-03-31T16:13:37.498Z,20.8
2018-03-31T16:14:28.120Z,20.9
2018-03-31T16:15:18.777Z,20.9
2018-03-31T16:16:08.547Z,20.9
2018-03-31T16:16:58.909Z,20.9
2018-03-31T16:17:48.084Z,20.8
2018-03-31T16:18:38.432Z,20.9
2018-03-31T16:19:29.052Z,20.8
2018-03-31T16:20:18.549Z,20.9
2018-03-31T16:21:08.352Z,20.8
2018-03-31T16:21:58.676Z,20.8
2018-03-31T16:22:49.041Z,20.9
2018-03-31T16:23:38.984Z,20.8
2018-03-31T16:24:28.887Z,20.8
2018-03-31T16:25:19.356Z,20.8
2018-03-31T16:26:08.550Z,20.9
2018-03-31T16:26:57.100Z,20.8
2018-03-31T16:27:48.155Z,20.8
2018-03-31T16:28:36.992Z,20.8
2018-03-31T16:29:27.789Z,20.8
2018-03-31T16:30:17.431Z,20.8
2018-03-31T16:31:07.430Z,20.8
2018-03-31T16:31:57.366Z,20.8
2018-03-31T16:32:47.422Z,20.8
2018-03-31T16:33:39.278Z,20.8
2018-03-31T16:34:29.349Z,20.8
2018-03-31T16:35:19.648Z,20.8
2018-03-31T16:36:10.312Z,20.8
2018-03-31T16:36:58.754Z,20.8
2018-03-31T16:37:49.825Z,20.8
2018-03-31T16:38:39.607Z,20.8
2018-03-31T16:39:30.522Z,20.8
2018-03-31T16:40:20.668Z,20.8
2018-03-31T16:41:10.371Z,20.8
2018-03-31T16:41:58.845Z,20.8
2018-03-31T16:42:47.636Z,20.8
2018-03-31T16:43:37.713Z,20.8
2018-03-31T16:44:29.242Z,20.8
2018-03-31T16:45:18.839Z,20.8
2018-03-31T16:46:09.853Z,20.8
2018-03-31T16:46:59.446Z,20.7
2018-03-31T16:47:48.955Z,20.8
2018-03-31T16:48:38.351Z,20.8
2018-03-31T16:49:29.452Z,20.8
2018-03-31T16:50:19.599Z,20.8
2018-03-31T16:51:07.817Z,20.8
2018-03-31T16:51:59.090Z,20.8
2018-03-31T16:52:48.389Z,20.8
2018-03-31T16:53:39.933Z,20.8
2018-03-31T16:54:29.992Z,20.8
2018-03-31T16:55:20.025Z,20.8
2018-03-31T16:56:09.150Z,20.8
2018-03-31T16:56:59.563Z,20.8
2018-03-31T16:57:50.625Z,20.8
2018-03-31T16:58:40.173Z,20.8
2018-03-31T16:59:29.278Z,20.8
2018-03-31T17:00:20.193Z,20.8
2018-03-31T17:01:09.638Z,20.7
2018-03-31T17:02:00.190Z,20.8
2018-03-31T17:02:49.577Z,20.8
2018-03-31T17:03:41.377Z,20.8
2018-03-31T17:04:29.440Z,20.8